Rochdale, MA

1:05 PM EDT on May 24, 2015 (GMT -0400)
North Central State | Change Station
CLOSE
Current Station
Airport
Location: Pawtucket,
Elevation: 440 ft
Nearby Weather Stations
Active Advisory: Special Statement

Elev 440 ft 41.92 °N, 71.49 °W | Updated 10 minutes ago

Clear
Clear
75 °F
Feels Like 75 °F
N
9
Wind Variable Wind from WSW
Gusts 16 mph

Today
High -- | Low -- °F
--% Chance of Precip.
Yesterday
High -- | Low -- °F
Precip. -- in
5:18 AM 8:10 PM
Waxing Crescent, 40% visible
Pressure 30.24 in
Visibility 10.0 miles
Clouds Clear
Dew Point 39 °F
Humidity 27%
Rainfall 0.00 in
Snow Depth Not available.
UV 12 out of 12
Pollen 10.60 out of 12
PM2.5 Good
Flu Activity Local Activity
METAR KSFZ 241655Z 25008G14KT 190V290 10SM CLR 24/04 A3024 RMK AO1

More Conditions Fewer Conditions

Pressure 30.24 in
Visibility 10.0 miles
Clouds Clear
Dew Point 39 °F
Humidity 27%
Rainfall 0.00 in
Snow Depth Not available.
UV 12 out of 12
Pollen 10.60 out of 12
PM2.5 Good
Flu Activity Local Activity
METAR KSFZ 241655Z 25008G14KT 190V290 10SM CLR 24/04 A3024 RMK AO1

More Conditions Fewer Conditions

10-Day Weather Forecast

Almanac

Astronomy

May. 24, 2015 Rise Set
Actual Time 5:18 AM EDT 8:10 PM EDT
Civil Twilight 4:45 AM EDT 8:43 PM EDT
Nautical Twilight 4:04 AM EDT 9:25 PM EDT
Astronomical Twilight 3:16 AM EDT 10:13 PM EDT
Moon 11:30 AM EDT 12:34 AM EDT
Length of Visible Light 15h 57m
Length of Day
14h 51m
Tomorrow will be 1m 38s longer.
Waxing Crescent, 40% of the Moon is Illuminated
Today
Waxing Crescent
May 25
First Quarter
Jun 2
Full
Jun 9
Last Quarter
Jun 16
New

Today's Extremes

State Highs State Lows

Community

WunderPhotos

Upload Photos

1,823,794 photos uploaded!

Nearby

Air Quality

  Air Quality AQ Index Pollutant
Yesterday Good
OZONE
Yesterday Good
PM2.5
Current Good
PM2.5
Sunday Good
OZONE
Sunday Good
PM2.5
Monday Moderate
PM2.5
Monday Good
OZONE

Snow Depth

Station Depth Elevation
No new snow has been reported.

Earthquake Activity

City Distance Mag. Time & Date
No recent earthquake activity has been reported nearby.
Minimum magnitude displayed is 2.5.

Coastal Water Temperatures

Place Temperature
No Stations Reporting

Nearby Weather Stations